sensor_id;sensor_type;location;lat;lon;timestamp;P1;durP1;ratioP1;P2;durP2;ratioP2
29416;SDS011;28421;51.030;4.006;2024-01-07T00:01:03;5.13;;;3.85;;
29416;SDS011;28421;51.030;4.006;2024-01-07T00:03:32;5.65;;;3.40;;
29416;SDS011;28421;51.030;4.006;2024-01-07T00:05:58;8.32;;;4.80;;
29416;SDS011;28421;51.030;4.006;2024-01-07T00:08:23;7.63;;;4.20;;
29416;SDS011;28421;51.030;4.006;2024-01-07T00:11:13;4.57;;;3.95;;
29416;SDS011;28421;51.030;4.006;2024-01-07T00:13:42;4.53;;;3.70;;
29416;SDS011;28421;51.030;4.006;2024-01-07T00:16:08;6.47;;;4.38;;
29416;SDS011;28421;51.030;4.006;2024-01-07T00:18:33;4.63;;;3.67;;
29416;SDS011;28421;51.030;4.006;2024-01-07T00:20:59;6.25;;;4.43;;
29416;SDS011;28421;51.030;4.006;2024-01-07T00:23:24;5.28;;;4.10;;
29416;SDS011;28421;51.030;4.006;2024-01-07T00:25:52;5.38;;;3.50;;
29416;SDS011;28421;51.030;4.006;2024-01-07T00:28:17;5.18;;;3.42;;
29416;SDS011;28421;51.030;4.006;2024-01-07T00:30:43;5.38;;;4.20;;
29416;SDS011;28421;51.030;4.006;2024-01-07T00:33:09;7.45;;;4.60;;
29416;SDS011;28421;51.030;4.006;2024-01-07T00:36:08;3.40;;;3.10;;
29416;SDS011;28421;51.030;4.006;2024-01-07T00:38:34;7.00;;;4.57;;
29416;SDS011;28421;51.030;4.006;2024-01-07T00:41:00;4.45;;;4.05;;
29416;SDS011;28421;51.030;4.006;2024-01-07T00:43:25;6.70;;;4.50;;
29416;SDS011;28421;51.030;4.006;2024-01-07T00:45:51;6.50;;;4.75;;
29416;SDS011;28421;51.030;4.006;2024-01-07T00:48:16;7.60;;;4.93;;
29416;SDS011;28421;51.030;4.006;2024-01-07T00:50:42;5.68;;;3.95;;
29416;SDS011;28421;51.030;4.006;2024-01-07T00:53:07;7.38;;;3.90;;
29416;SDS011;28421;51.030;4.006;2024-01-07T00:55:33;19.30;;;4.72;;
29416;SDS011;28421;51.030;4.006;2024-01-07T00:58:00;4.68;;;4.00;;
29416;SDS011;28421;51.030;4.006;2024-01-07T01:00:26;6.45;;;4.90;;
29416;SDS011;28421;51.030;4.006;2024-01-07T01:02:52;8.30;;;5.10;;
29416;SDS011;28421;51.030;4.006;2024-01-07T01:05:18;5.85;;;4.00;;
29416;SDS011;28421;51.030;4.006;2024-01-07T01:07:43;6.20;;;2.97;;
29416;SDS011;28421;51.030;4.006;2024-01-07T01:10:09;5.80;;;4.75;;
29416;SDS011;28421;51.030;4.006;2024-01-07T01:12:35;7.32;;;4.43;;
29416;SDS011;28421;51.030;4.006;2024-01-07T01:15:01;8.68;;;4.47;;
29416;SDS011;28421;51.030;4.006;2024-01-07T01:17:26;8.73;;;4.07;;
29416;SDS011;28421;51.030;4.006;2024-01-07T01:19:52;6.05;;;4.55;;
29416;SDS011;28421;51.030;4.006;2024-01-07T01:22:17;6.50;;;4.65;;
29416;SDS011;28421;51.030;4.006;2024-01-07T01:24:43;7.63;;;5.07;;
29416;SDS011;28421;51.030;4.006;2024-01-07T01:27:11;6.97;;;4.97;;
29416;SDS011;28421;51.030;4.006;2024-01-07T01:29:38;4.95;;;3.40;;
29416;SDS011;28421;51.030;4.006;2024-01-07T01:32:05;4.53;;;3.75;;
29416;SDS011;28421;51.030;4.006;2024-01-07T01:34:31;5.60;;;3.95;;
29416;SDS011;28421;51.030;4.006;2024-01-07T01:36:56;4.95;;;3.53;;
29416;SDS011;28421;51.030;4.006;2024-01-07T01:39:22;6.65;;;4.40;;
29416;SDS011;28421;51.030;4.006;2024-01-07T01:41:48;6.88;;;4.57;;
29416;SDS011;28421;51.030;4.006;2024-01-07T01:44:13;5.32;;;3.92;;
29416;SDS011;28421;51.030;4.006;2024-01-07T01:46:39;6.80;;;4.72;;
29416;SDS011;28421;51.030;4.006;2024-01-07T01:49:04;5.07;;;4.18;;
29416;SDS011;28421;51.030;4.006;2024-01-07T01:51:31;8.23;;;5.70;;
29416;SDS011;28421;51.030;4.006;2024-01-07T01:53:57;4.93;;;4.38;;
29416;SDS011;28421;51.030;4.006;2024-01-07T01:56:25;5.13;;;4.35;;
29416;SDS011;28421;51.030;4.006;2024-01-07T01:58:53;6.68;;;5.13;;
29416;SDS011;28421;51.030;4.006;2024-01-07T02:01:19;9.63;;;5.65;;
29416;SDS011;28421;51.030;4.006;2024-01-07T02:03:45;7.60;;;4.57;;
29416;SDS011;28421;51.030;4.006;2024-01-07T02:06:11;8.18;;;5.43;;
29416;SDS011;28421;51.030;4.006;2024-01-07T02:08:37;5.78;;;4.53;;
29416;SDS011;28421;51.030;4.006;2024-01-07T02:11:14;13.77;;;6.50;;
29416;SDS011;28421;51.030;4.006;2024-01-07T02:13:49;5.68;;;4.40;;
29416;SDS011;28421;51.030;4.006;2024-01-07T02:16:14;10.77;;;5.95;;
29416;SDS011;28421;51.030;4.006;2024-01-07T02:18:42;6.85;;;5.35;;
29416;SDS011;28421;51.030;4.006;2024-01-07T02:21:09;8.48;;;6.45;;
29416;SDS011;28421;51.030;4.006;2024-01-07T02:23:35;14.25;;;7.90;;
29416;SDS011;28421;51.030;4.006;2024-01-07T02:26:00;11.10;;;6.38;;
29416;SDS011;28421;51.030;4.006;2024-01-07T02:28:26;11.68;;;7.68;;
29416;SDS011;28421;51.030;4.006;2024-01-07T02:30:51;13.38;;;7.82;;
29416;SDS011;28421;51.030;4.006;2024-01-07T02:33:17;15.68;;;8.60;;
29416;SDS011;28421;51.030;4.006;2024-01-07T02:35:42;12.95;;;6.38;;
29416;SDS011;28421;51.030;4.006;2024-01-07T02:38:08;12.88;;;7.10;;
29416;SDS011;28421;51.030;4.006;2024-01-07T02:40:33;10.70;;;6.32;;
29416;SDS011;28421;51.030;4.006;2024-01-07T02:42:58;11.98;;;6.85;;
29416;SDS011;28421;51.030;4.006;2024-01-07T02:45:24;15.65;;;8.27;;
29416;SDS011;28421;51.030;4.006;2024-01-07T02:47:50;8.00;;;5.38;;
29416;SDS011;28421;51.030;4.006;2024-01-07T02:50:15;14.02;;;7.32;;
29416;SDS011;28421;51.030;4.006;2024-01-07T02:52:41;19.75;;;7.20;;
29416;SDS011;28421;51.030;4.006;2024-01-07T02:55:07;12.38;;;7.78;;
29416;SDS011;28421;51.030;4.006;2024-01-07T02:57:33;8.65;;;6.50;;
29416;SDS011;28421;51.030;4.006;2024-01-07T02:59:59;10.85;;;5.80;;
29416;SDS011;28421;51.030;4.006;2024-01-07T03:02:24;16.90;;;6.82;;
29416;SDS011;28421;51.030;4.006;2024-01-07T03:04:50;13.60;;;7.47;;
29416;SDS011;28421;51.030;4.006;2024-01-07T03:07:15;14.18;;;6.78;;
29416;SDS011;28421;51.030;4.006;2024-01-07T03:09:41;13.20;;;8.07;;
29416;SDS011;28421;51.030;4.006;2024-01-07T03:12:06;10.20;;;6.53;;
29416;SDS011;28421;51.030;4.006;2024-01-07T03:14:32;10.35;;;6.50;;
29416;SDS011;28421;51.030;4.006;2024-01-07T03:16:57;14.68;;;8.73;;
29416;SDS011;28421;51.030;4.006;2024-01-07T03:19:23;11.70;;;7.53;;
29416;SDS011;28421;51.030;4.006;2024-01-07T03:21:48;11.15;;;7.93;;
29416;SDS011;28421;51.030;4.006;2024-01-07T03:24:14;12.85;;;7.75;;
29416;SDS011;28421;51.030;4.006;2024-01-07T03:26:39;18.33;;;9.77;;
29416;SDS011;28421;51.030;4.006;2024-01-07T03:29:05;12.32;;;7.03;;
29416;SDS011;28421;51.030;4.006;2024-01-07T03:31:30;12.30;;;7.43;;
29416;SDS011;28421;51.030;4.006;2024-01-07T03:33:56;18.27;;;8.48;;
29416;SDS011;28421;51.030;4.006;2024-01-07T03:36:22;11.02;;;6.18;;
29416;SDS011;28421;51.030;4.006;2024-01-07T03:38:47;14.18;;;8.27;;
29416;SDS011;28421;51.030;4.006;2024-01-07T03:41:17;9.68;;;6.13;;
29416;SDS011;28421;51.030;4.006;2024-01-07T03:43:43;7.55;;;5.22;;
29416;SDS011;28421;51.030;4.006;2024-01-07T03:46:10;8.43;;;6.00;;
29416;SDS011;28421;51.030;4.006;2024-01-07T03:48:35;8.13;;;6.18;;
29416;SDS011;28421;51.030;4.006;2024-01-07T03:51:01;14.55;;;7.07;;
29416;SDS011;28421;51.030;4.006;2024-01-07T03:53:26;10.23;;;7.82;;
29416;SDS011;28421;51.030;4.006;2024-01-07T03:55:52;9.48;;;5.82;;
29416;SDS011;28421;51.030;4.006;2024-01-07T03:58:17;9.75;;;7.53;;
29416;SDS011;28421;51.030;4.006;2024-01-07T04:00:42;15.05;;;7.07;;
29416;SDS011;28421;51.030;4.006;2024-01-07T04:03:08;14.07;;;8.02;;
29416;SDS011;28421;51.030;4.006;2024-01-07T04:05:33;10.90;;;6.60;;
29416;SDS011;28421;51.030;4.006;2024-01-07T04:08:00;12.93;;;7.82;;
29416;SDS011;28421;51.030;4.006;2024-01-07T04:10:26;15.82;;;9.27;;
29416;SDS011;28421;51.030;4.006;2024-01-07T04:12:52;15.70;;;10.30;;
29416;SDS011;28421;51.030;4.006;2024-01-07T04:15:17;9.15;;;6.45;;
29416;SDS011;28421;51.030;4.006;2024-01-07T04:17:43;11.23;;;7.13;;
29416;SDS011;28421;51.030;4.006;2024-01-07T04:20:12;15.63;;;7.80;;
29416;SDS011;28421;51.030;4.006;2024-01-07T04:22:38;13.77;;;7.78;;
29416;SDS011;28421;51.030;4.006;2024-01-07T04:25:03;17.40;;;8.75;;
29416;SDS011;28421;51.030;4.006;2024-01-07T04:27:33;8.90;;;7.55;;
29416;SDS011;28421;51.030;4.006;2024-01-07T04:30:00;16.50;;;8.50;;
29416;SDS011;28421;51.030;4.006;2024-01-07T04:32:26;13.43;;;7.43;;
29416;SDS011;28421;51.030;4.006;2024-01-07T04:34:51;14.13;;;8.43;;
29416;SDS011;28421;51.030;4.006;2024-01-07T04:37:17;9.15;;;6.82;;
29416;SDS011;28421;51.030;4.006;2024-01-07T04:39:42;15.57;;;8.50;;
29416;SDS011;28421;51.030;4.006;2024-01-07T04:42:08;13.43;;;8.43;;
29416;SDS011;28421;51.030;4.006;2024-01-07T04:44:33;13.55;;;7.72;;
29416;SDS011;28421;51.030;4.006;2024-01-07T04:46:59;17.90;;;9.40;;
29416;SDS011;28421;51.030;4.006;2024-01-07T04:49:24;12.10;;;7.80;;
29416;SDS011;28421;51.030;4.006;2024-01-07T04:51:50;13.70;;;8.45;;
29416;SDS011;28421;51.030;4.006;2024-01-07T04:54:15;13.05;;;7.20;;
29416;SDS011;28421;51.030;4.006;2024-01-07T04:56:41;11.75;;;9.23;;
29416;SDS011;28421;51.030;4.006;2024-01-07T04:59:06;18.25;;;10.02;;
29416;SDS011;28421;51.030;4.006;2024-01-07T05:01:32;11.15;;;7.50;;
29416;SDS011;28421;51.030;4.006;2024-01-07T05:03:58;17.60;;;9.23;;
29416;SDS011;28421;51.030;4.006;2024-01-07T05:06:24;18.60;;;10.45;;
29416;SDS011;28421;51.030;4.006;2024-01-07T05:08:49;16.38;;;9.88;;
29416;SDS011;28421;51.030;4.006;2024-01-07T05:11:15;15.75;;;9.70;;
29416;SDS011;28421;51.030;4.006;2024-01-07T05:13:42;16.95;;;8.95;;
29416;SDS011;28421;51.030;4.006;2024-01-07T05:16:08;18.90;;;9.88;;
29416;SDS011;28421;51.030;4.006;2024-01-07T05:18:33;17.92;;;10.60;;
29416;SDS011;28421;51.030;4.006;2024-01-07T05:20:59;15.45;;;10.52;;
29416;SDS011;28421;51.030;4.006;2024-01-07T05:23:24;23.33;;;9.27;;
29416;SDS011;28421;51.030;4.006;2024-01-07T05:25:50;19.77;;;11.35;;
29416;SDS011;28421;51.030;4.006;2024-01-07T05:28:15;17.48;;;10.52;;
29416;SDS011;28421;51.030;4.006;2024-01-07T05:30:44;15.55;;;9.55;;
29416;SDS011;28421;51.030;4.006;2024-01-07T05:33:10;17.42;;;8.85;;
29416;SDS011;28421;51.030;4.006;2024-01-07T05:35:35;8.80;;;6.43;;
29416;SDS011;28421;51.030;4.006;2024-01-07T05:38:00;15.32;;;7.97;;
29416;SDS011;28421;51.030;4.006;2024-01-07T05:40:26;14.88;;;9.10;;
29416;SDS011;28421;51.030;4.006;2024-01-07T05:42:52;12.10;;;7.75;;
29416;SDS011;28421;51.030;4.006;2024-01-07T05:45:17;17.30;;;10.20;;
29416;SDS011;28421;51.030;4.006;2024-01-07T05:47:42;13.00;;;8.77;;
29416;SDS011;28421;51.030;4.006;2024-01-07T05:50:08;14.52;;;9.18;;
29416;SDS011;28421;51.030;4.006;2024-01-07T05:52:34;18.45;;;8.68;;
29416;SDS011;28421;51.030;4.006;2024-01-07T05:55:00;10.38;;;7.82;;
29416;SDS011;28421;51.030;4.006;2024-01-07T05:57:25;15.43;;;10.30;;
29416;SDS011;28421;51.030;4.006;2024-01-07T05:59:51;13.02;;;9.63;;
29416;SDS011;28421;51.030;4.006;2024-01-07T06:02:17;14.95;;;9.15;;
29416;SDS011;28421;51.030;4.006;2024-01-07T06:04:42;20.73;;;9.45;;
29416;SDS011;28421;51.030;4.006;2024-01-07T06:07:08;19.65;;;8.82;;
29416;SDS011;28421;51.030;4.006;2024-01-07T06:09:34;18.63;;;8.65;;
29416;SDS011;28421;51.030;4.006;2024-01-07T06:12:00;16.73;;;9.30;;
29416;SDS011;28421;51.030;4.006;2024-01-07T06:14:25;21.33;;;10.85;;
29416;SDS011;28421;51.030;4.006;2024-01-07T06:16:51;19.80;;;10.23;;
29416;SDS011;28421;51.030;4.006;2024-01-07T06:19:17;14.50;;;10.20;;
29416;SDS011;28421;51.030;4.006;2024-01-07T06:21:43;17.58;;;10.88;;
29416;SDS011;28421;51.030;4.006;2024-01-07T06:24:08;20.25;;;11.68;;
29416;SDS011;28421;51.030;4.006;2024-01-07T06:26:34;8.25;;;6.78;;
29416;SDS011;28421;51.030;4.006;2024-01-07T06:29:00;11.95;;;5.82;;
29416;SDS011;28421;51.030;4.006;2024-01-07T06:31:26;14.10;;;8.15;;
29416;SDS011;28421;51.030;4.006;2024-01-07T06:33:52;17.40;;;9.82;;
29416;SDS011;28421;51.030;4.006;2024-01-07T06:36:17;16.05;;;8.57;;
29416;SDS011;28421;51.030;4.006;2024-01-07T06:38:43;17.17;;;10.05;;
29416;SDS011;28421;51.030;4.006;2024-01-07T06:41:12;10.38;;;8.07;;
29416;SDS011;28421;51.030;4.006;2024-01-07T06:43:38;10.48;;;7.68;;
29416;SDS011;28421;51.030;4.006;2024-01-07T06:46:04;23.15;;;8.77;;
29416;SDS011;28421;51.030;4.006;2024-01-07T06:48:29;13.43;;;9.23;;
29416;SDS011;28421;51.030;4.006;2024-01-07T06:50:55;17.90;;;10.13;;
29416;SDS011;28421;51.030;4.006;2024-01-07T06:53:20;15.57;;;10.15;;
29416;SDS011;28421;51.030;4.006;2024-01-07T06:55:46;19.40;;;9.07;;
29416;SDS011;28421;51.030;4.006;2024-01-07T06:58:13;21.58;;;10.73;;
29416;SDS011;28421;51.030;4.006;2024-01-07T07:00:38;16.70;;;9.00;;
29416;SDS011;28421;51.030;4.006;2024-01-07T07:03:04;13.40;;;9.00;;
29416;SDS011;28421;51.030;4.006;2024-01-07T07:05:30;17.08;;;8.52;;
29416;SDS011;28421;51.030;4.006;2024-01-07T07:07:56;19.83;;;10.60;;
29416;SDS011;28421;51.030;4.006;2024-01-07T07:10:22;15.27;;;9.10;;
29416;SDS011;28421;51.030;4.006;2024-01-07T07:12:47;15.60;;;8.98;;
29416;SDS011;28421;51.030;4.006;2024-01-07T07:15:13;21.83;;;10.93;;
29416;SDS011;28421;51.030;4.006;2024-01-07T07:17:38;20.38;;;11.60;;
29416;SDS011;28421;51.030;4.006;2024-01-07T07:20:04;16.35;;;9.85;;
29416;SDS011;28421;51.030;4.006;2024-01-07T07:22:31;18.13;;;8.90;;
29416;SDS011;28421;51.030;4.006;2024-01-07T07:24:57;19.92;;;9.75;;
29416;SDS011;28421;51.030;4.006;2024-01-07T07:27:22;13.40;;;8.55;;
29416;SDS011;28421;51.030;4.006;2024-01-07T07:29:48;11.65;;;7.85;;
29416;SDS011;28421;51.030;4.006;2024-01-07T07:32:14;18.13;;;8.68;;
29416;SDS011;28421;51.030;4.006;2024-01-07T07:34:39;16.52;;;10.60;;
29416;SDS011;28421;51.030;4.006;2024-01-07T07:37:04;15.48;;;8.43;;
29416;SDS011;28421;51.030;4.006;2024-01-07T07:39:30;19.27;;;10.95;;
29416;SDS011;28421;51.030;4.006;2024-01-07T07:41:55;22.58;;;11.13;;
29416;SDS011;28421;51.030;4.006;2024-01-07T07:44:21;16.67;;;10.38;;
29416;SDS011;28421;51.030;4.006;2024-01-07T07:46:46;17.05;;;9.57;;
29416;SDS011;28421;51.030;4.006;2024-01-07T07:49:12;18.77;;;10.90;;
29416;SDS011;28421;51.030;4.006;2024-01-07T07:51:38;19.17;;;10.68;;
29416;SDS011;28421;51.030;4.006;2024-01-07T07:54:04;15.90;;;9.68;;
29416;SDS011;28421;51.030;4.006;2024-01-07T07:56:29;14.52;;;9.35;;
29416;SDS011;28421;51.030;4.006;2024-01-07T07:58:55;19.23;;;10.45;;
29416;SDS011;28421;51.030;4.006;2024-01-07T08:01:20;19.80;;;9.02;;
29416;SDS011;28421;51.030;4.006;2024-01-07T08:03:46;21.55;;;11.70;;
29416;SDS011;28421;51.030;4.006;2024-01-07T08:06:11;26.13;;;12.05;;
29416;SDS011;28421;51.030;4.006;2024-01-07T08:08:37;20.23;;;12.18;;
29416;SDS011;28421;51.030;4.006;2024-01-07T08:11:02;20.08;;;10.77;;
29416;SDS011;28421;51.030;4.006;2024-01-07T08:13:31;23.00;;;12.43;;
29416;SDS011;28421;51.030;4.006;2024-01-07T08:15:56;22.00;;;10.05;;
29416;SDS011;28421;51.030;4.006;2024-01-07T08:18:22;21.92;;;11.82;;
29416;SDS011;28421;51.030;4.006;2024-01-07T08:20:47;18.70;;;11.57;;
29416;SDS011;28421;51.030;4.006;2024-01-07T08:23:13;19.15;;;10.38;;
29416;SDS011;28421;51.030;4.006;2024-01-07T08:25:38;18.40;;;12.90;;
29416;SDS011;28421;51.030;4.006;2024-01-07T08:28:05;34.97;;;11.60;;
29416;SDS011;28421;51.030;4.006;2024-01-07T08:30:30;25.10;;;13.48;;
29416;SDS011;28421;51.030;4.006;2024-01-07T08:32:57;16.83;;;11.98;;
29416;SDS011;28421;51.030;4.006;2024-01-07T08:35:23;22.42;;;11.95;;
29416;SDS011;28421;51.030;4.006;2024-01-07T08:37:48;18.88;;;10.65;;
29416;SDS011;28421;51.030;4.006;2024-01-07T08:40:14;14.65;;;9.93;;
29416;SDS011;28421;51.030;4.006;2024-01-07T08:42:40;23.67;;;13.95;;
29416;SDS011;28421;51.030;4.006;2024-01-07T08:45:06;22.23;;;11.73;;
29416;SDS011;28421;51.030;4.006;2024-01-07T08:47:32;27.25;;;13.38;;
29416;SDS011;28421;51.030;4.006;2024-01-07T08:49:57;20.77;;;10.15;;
29416;SDS011;28421;51.030;4.006;2024-01-07T08:52:23;18.70;;;11.20;;
29416;SDS011;28421;51.030;4.006;2024-01-07T08:54:49;31.23;;;12.43;;
29416;SDS011;28421;51.030;4.006;2024-01-07T08:57:14;16.88;;;11.38;;
29416;SDS011;28421;51.030;4.006;2024-01-07T08:59:40;15.32;;;10.00;;
29416;SDS011;28421;51.030;4.006;2024-01-07T09:02:06;19.77;;;11.32;;
29416;SDS011;28421;51.030;4.006;2024-01-07T09:04:31;18.55;;;11.88;;
29416;SDS011;28421;51.030;4.006;2024-01-07T09:06:58;30.48;;;15.73;;
29416;SDS011;28421;51.030;4.006;2024-01-07T09:09:24;18.05;;;9.23;;
29416;SDS011;28421;51.030;4.006;2024-01-07T09:11:49;19.63;;;11.30;;
29416;SDS011;28421;51.030;4.006;2024-01-07T09:14:15;36.72;;;14.05;;
29416;SDS011;28421;51.030;4.006;2024-01-07T09:16:40;15.50;;;9.38;;
29416;SDS011;28421;51.030;4.006;2024-01-07T09:19:06;18.30;;;11.00;;
29416;SDS011;28421;51.030;4.006;2024-01-07T09:21:31;23.65;;;12.85;;
29416;SDS011;28421;51.030;4.006;2024-01-07T09:23:57;31.30;;;13.77;;
29416;SDS011;28421;51.030;4.006;2024-01-07T09:26:22;28.08;;;12.75;;
29416;SDS011;28421;51.030;4.006;2024-01-07T09:28:48;20.50;;;12.15;;
29416;SDS011;28421;51.030;4.006;2024-01-07T09:31:13;21.60;;;13.25;;
29416;SDS011;28421;51.030;4.006;2024-01-07T09:33:39;20.67;;;12.27;;
29416;SDS011;28421;51.030;4.006;2024-01-07T09:36:04;25.52;;;12.73;;
29416;SDS011;28421;51.030;4.006;2024-01-07T09:38:32;29.05;;;11.43;;
29416;SDS011;28421;51.030;4.006;2024-01-07T09:40:57;28.27;;;14.07;;
29416;SDS011;28421;51.030;4.006;2024-01-07T09:43:23;31.42;;;13.48;;
29416;SDS011;28421;51.030;4.006;2024-01-07T09:45:48;18.85;;;10.00;;
29416;SDS011;28421;51.030;4.006;2024-01-07T09:48:17;23.40;;;11.00;;
29416;SDS011;28421;51.030;4.006;2024-01-07T09:50:42;20.70;;;11.35;;
29416;SDS011;28421;51.030;4.006;2024-01-07T09:53:09;23.83;;;14.07;;
29416;SDS011;28421;51.030;4.006;2024-01-07T09:55:40;30.95;;;13.13;;
29416;SDS011;28421;51.030;4.006;2024-01-07T09:58:16;16.35;;;10.57;;
29416;SDS011;28421;51.030;4.006;2024-01-07T10:00:41;19.75;;;11.25;;
29416;SDS011;28421;51.030;4.006;2024-01-07T10:03:07;17.50;;;10.55;;
29416;SDS011;28421;51.030;4.006;2024-01-07T10:05:32;20.83;;;10.57;;
29416;SDS011;28421;51.030;4.006;2024-01-07T10:07:58;19.70;;;10.98;;
29416;SDS011;28421;51.030;4.006;2024-01-07T10:10:24;15.15;;;9.82;;
29416;SDS011;28421;51.030;4.006;2024-01-07T10:12:49;24.27;;;11.65;;
29416;SDS011;28421;51.030;4.006;2024-01-07T10:15:18;23.65;;;12.88;;
29416;SDS011;28421;51.030;4.006;2024-01-07T10:17:43;25.00;;;14.52;;
29416;SDS011;28421;51.030;4.006;2024-01-07T10:20:10;22.27;;;11.95;;
29416;SDS011;28421;51.030;4.006;2024-01-07T10:22:36;16.75;;;9.80;;
29416;SDS011;28421;51.030;4.006;2024-01-07T10:25:05;23.83;;;11.40;;
29416;SDS011;28421;51.030;4.006;2024-01-07T10:27:35;18.65;;;10.63;;
29416;SDS011;28421;51.030;4.006;2024-01-07T10:30:01;25.08;;;11.40;;
29416;SDS011;28421;51.030;4.006;2024-01-07T10:32:31;22.63;;;11.00;;
29416;SDS011;28421;51.030;4.006;2024-01-07T10:35:03;19.42;;;11.60;;
29416;SDS011;28421;51.030;4.006;2024-01-07T10:37:32;21.58;;;11.73;;
29416;SDS011;28421;51.030;4.006;2024-01-07T10:39:59;20.50;;;10.50;;
29416;SDS011;28421;51.030;4.006;2024-01-07T10:42:32;29.50;;;15.35;;
29416;SDS011;28421;51.030;4.006;2024-01-07T10:44:59;23.33;;;14.35;;
29416;SDS011;28421;51.030;4.006;2024-01-07T10:47:32;22.30;;;12.90;;
29416;SDS011;28421;51.030;4.006;2024-01-07T10:49:59;13.38;;;9.27;;
29416;SDS011;28421;51.030;4.006;2024-01-07T10:52:28;17.20;;;11.07;;
29416;SDS011;28421;51.030;4.006;2024-01-07T10:54:57;18.95;;;11.88;;
29416;SDS011;28421;51.030;4.006;2024-01-07T10:57:34;16.90;;;10.10;;
29416;SDS011;28421;51.030;4.006;2024-01-07T11:00:06;16.58;;;10.00;;
29416;SDS011;28421;51.030;4.006;2024-01-07T11:02:47;11.80;;;7.85;;
29416;SDS011;28421;51.030;4.006;2024-01-07T11:05:19;19.95;;;11.38;;
29416;SDS011;28421;51.030;4.006;2024-01-07T11:08:01;20.83;;;10.70;;
29416;SDS011;28421;51.030;4.006;2024-01-07T11:10:35;17.52;;;11.02;;
29416;SDS011;28421;51.030;4.006;2024-01-07T11:13:05;15.43;;;8.63;;
29416;SDS011;28421;51.030;4.006;2024-01-07T11:18:18;18.50;;;10.82;;
29416;SDS011;28421;51.030;4.006;2024-01-07T11:20:45;22.30;;;10.38;;
29416;SDS011;28421;51.030;4.006;2024-01-07T11:23:30;13.38;;;9.25;;
29416;SDS011;28421;51.030;4.006;2024-01-07T11:26:06;17.17;;;10.43;;
29416;SDS011;28421;51.030;4.006;2024-01-07T11:34:10;17.77;;;10.00;;
29416;SDS011;28421;51.030;4.006;2024-01-07T11:36:36;19.27;;;8.60;;
29416;SDS011;28421;51.030;4.006;2024-01-07T11:39:02;15.82;;;9.10;;
29416;SDS011;28421;51.030;4.006;2024-01-07T11:41:30;21.63;;;11.70;;
29416;SDS011;28421;51.030;4.006;2024-01-07T11:43:58;14.18;;;8.50;;
29416;SDS011;28421;51.030;4.006;2024-01-07T11:46:25;14.48;;;9.50;;
29416;SDS011;28421;51.030;4.006;2024-01-07T11:48:55;18.35;;;7.68;;
29416;SDS011;28421;51.030;4.006;2024-01-07T11:51:25;17.05;;;10.45;;
29416;SDS011;28421;51.030;4.006;2024-01-07T11:53:56;14.00;;;9.55;;
29416;SDS011;28421;51.030;4.006;2024-01-07T11:56:22;19.10;;;9.27;;
29416;SDS011;28421;51.030;4.006;2024-01-07T11:58:49;21.45;;;11.70;;
29416;SDS011;28421;51.030;4.006;2024-01-07T12:01:15;20.25;;;11.27;;
29416;SDS011;28421;51.030;4.006;2024-01-07T12:03:43;21.00;;;10.07;;
29416;SDS011;28421;51.030;4.006;2024-01-07T12:06:09;20.75;;;8.68;;
29416;SDS011;28421;51.030;4.006;2024-01-07T12:08:38;18.08;;;9.52;;
29416;SDS011;28421;51.030;4.006;2024-01-07T12:11:04;16.17;;;9.50;;
29416;SDS011;28421;51.030;4.006;2024-01-07T12:13:30;11.35;;;7.68;;
29416;SDS011;28421;51.030;4.006;2024-01-07T12:15:56;12.20;;;7.65;;
29416;SDS011;28421;51.030;4.006;2024-01-07T12:18:22;16.42;;;9.63;;
29416;SDS011;28421;51.030;4.006;2024-01-07T12:20:56;19.00;;;9.15;;
29416;SDS011;28421;51.030;4.006;2024-01-07T12:23:23;16.58;;;10.07;;
29416;SDS011;28421;51.030;4.006;2024-01-07T12:25:49;13.23;;;8.48;;
29416;SDS011;28421;51.030;4.006;2024-01-07T12:28:16;13.48;;;8.65;;
29416;SDS011;28421;51.030;4.006;2024-01-07T12:30:43;19.63;;;8.50;;
29416;SDS011;28421;51.030;4.006;2024-01-07T12:33:09;17.95;;;10.20;;
29416;SDS011;28421;51.030;4.006;2024-01-07T12:35:35;15.05;;;8.68;;
29416;SDS011;28421;51.030;4.006;2024-01-07T12:38:01;15.10;;;8.70;;
29416;SDS011;28421;51.030;4.006;2024-01-07T12:40:28;11.25;;;7.70;;
29416;SDS011;28421;51.030;4.006;2024-01-07T12:42:53;13.02;;;9.35;;
29416;SDS011;28421;51.030;4.006;2024-01-07T12:45:18;13.70;;;9.18;;
29416;SDS011;28421;51.030;4.006;2024-01-07T12:47:44;16.00;;;10.13;;
29416;SDS011;28421;51.030;4.006;2024-01-07T12:50:11;13.05;;;8.90;;
29416;SDS011;28421;51.030;4.006;2024-01-07T12:52:39;19.75;;;9.48;;
29416;SDS011;28421;51.030;4.006;2024-01-07T12:55:05;20.48;;;9.57;;
29416;SDS011;28421;51.030;4.006;2024-01-07T12:57:32;23.15;;;11.60;;
29416;SDS011;28421;51.030;4.006;2024-01-07T12:59:58;9.07;;;7.25;;
29416;SDS011;28421;51.030;4.006;2024-01-07T13:02:24;18.70;;;10.85;;
29416;SDS011;28421;51.030;4.006;2024-01-07T13:04:50;18.42;;;11.13;;
29416;SDS011;28421;51.030;4.006;2024-01-07T13:07:16;16.08;;;8.75;;
29416;SDS011;28421;51.030;4.006;2024-01-07T13:09:42;17.15;;;10.18;;
29416;SDS011;28421;51.030;4.006;2024-01-07T13:12:09;11.52;;;9.18;;
29416;SDS011;28421;51.030;4.006;2024-01-07T13:14:36;14.77;;;8.77;;
29416;SDS011;28421;51.030;4.006;2024-01-07T13:17:01;13.35;;;9.02;;
29416;SDS011;28421;51.030;4.006;2024-01-07T13:19:27;14.48;;;8.55;;
29416;SDS011;28421;51.030;4.006;2024-01-07T13:21:53;11.68;;;7.68;;
29416;SDS011;28421;51.030;4.006;2024-01-07T13:24:20;11.00;;;7.38;;
29416;SDS011;28421;51.030;4.006;2024-01-07T13:26:46;13.25;;;7.28;;
29416;SDS011;28421;51.030;4.006;2024-01-07T13:29:12;16.20;;;8.30;;
29416;SDS011;28421;51.030;4.006;2024-01-07T13:31:38;25.85;;;12.05;;
29416;SDS011;28421;51.030;4.006;2024-01-07T13:34:03;13.55;;;8.93;;
29416;SDS011;28421;51.030;4.006;2024-01-07T13:36:28;13.25;;;8.32;;
29416;SDS011;28421;51.030;4.006;2024-01-07T13:38:54;11.93;;;7.22;;
29416;SDS011;28421;51.030;4.006;2024-01-07T13:41:20;13.48;;;8.85;;
29416;SDS011;28421;51.030;4.006;2024-01-07T13:43:45;12.88;;;8.02;;
29416;SDS011;28421;51.030;4.006;2024-01-07T13:46:11;10.55;;;7.95;;
29416;SDS011;28421;51.030;4.006;2024-01-07T13:48:36;11.52;;;7.82;;
29416;SDS011;28421;51.030;4.006;2024-01-07T13:51:04;15.43;;;10.65;;
29416;SDS011;28421;51.030;4.006;2024-01-07T13:53:31;9.20;;;6.43;;
29416;SDS011;28421;51.030;4.006;2024-01-07T13:55:57;11.27;;;7.85;;
29416;SDS011;28421;51.030;4.006;2024-01-07T13:58:23;13.63;;;8.13;;
29416;SDS011;28421;51.030;4.006;2024-01-07T14:00:48;18.88;;;7.70;;
29416;SDS011;28421;51.030;4.006;2024-01-07T14:03:14;15.77;;;7.63;;
29416;SDS011;28421;51.030;4.006;2024-01-07T14:05:40;10.10;;;7.55;;
29416;SDS011;28421;51.030;4.006;2024-01-07T14:08:06;14.65;;;8.90;;
29416;SDS011;28421;51.030;4.006;2024-01-07T14:10:31;11.32;;;7.93;;
29416;SDS011;28421;51.030;4.006;2024-01-07T14:12:57;16.02;;;8.98;;
29416;SDS011;28421;51.030;4.006;2024-01-07T14:15:23;14.70;;;9.52;;
29416;SDS011;28421;51.030;4.006;2024-01-07T14:17:48;15.57;;;8.05;;
29416;SDS011;28421;51.030;4.006;2024-01-07T14:20:14;11.60;;;8.45;;
29416;SDS011;28421;51.030;4.006;2024-01-07T14:22:39;10.98;;;7.60;;
29416;SDS011;28421;51.030;4.006;2024-01-07T14:25:05;12.73;;;7.70;;
29416;SDS011;28421;51.030;4.006;2024-01-07T14:27:31;13.77;;;6.55;;
29416;SDS011;28421;51.030;4.006;2024-01-07T14:29:56;11.07;;;6.55;;
29416;SDS011;28421;51.030;4.006;2024-01-07T14:32:22;15.20;;;8.18;;
29416;SDS011;28421;51.030;4.006;2024-01-07T14:34:47;9.20;;;6.45;;
29416;SDS011;28421;51.030;4.006;2024-01-07T14:37:15;12.07;;;6.97;;